sensor_id;sensor_type;location;lat;lon;timestamp;P1;durP1;ratioP1;P2;durP2;ratioP2
77324;SDS011;66387;53.440;10.390;2024-02-15T00:02:25;26.25;;;11.05;;
77324;SDS011;66387;53.440;10.390;2024-02-15T00:04:50;25.40;;;11.70;;
77324;SDS011;66387;53.440;10.390;2024-02-15T00:07:15;26.67;;;13.03;;
77324;SDS011;66387;53.440;10.390;2024-02-15T00:09:41;31.37;;;13.00;;
77324;SDS011;66387;53.440;10.390;2024-02-15T00:12:06;28.17;;;12.10;;
77324;SDS011;66387;53.440;10.390;2024-02-15T00:14:32;23.50;;;12.15;;
77324;SDS011;66387;53.440;10.390;2024-02-15T00:16:58;26.05;;;12.02;;
77324;SDS011;66387;53.440;10.390;2024-02-15T00:19:23;26.47;;;12.63;;
77324;SDS011;66387;53.440;10.390;2024-02-15T00:21:49;28.05;;;13.15;;
77324;SDS011;66387;53.440;10.390;2024-02-15T00:24:14;28.98;;;13.15;;
77324;SDS011;66387;53.440;10.390;2024-02-15T00:26:40;26.47;;;11.80;;
77324;SDS011;66387;53.440;10.390;2024-02-15T00:29:06;24.67;;;11.90;;
77324;SDS011;66387;53.440;10.390;2024-02-15T00:31:32;22.33;;;10.68;;
77324;SDS011;66387;53.440;10.390;2024-02-15T00:33:58;24.60;;;10.57;;
77324;SDS011;66387;53.440;10.390;2024-02-15T00:36:24;24.85;;;11.38;;
77324;SDS011;66387;53.440;10.390;2024-02-15T00:38:49;24.67;;;10.70;;
77324;SDS011;66387;53.440;10.390;2024-02-15T00:41:14;25.13;;;11.90;;
77324;SDS011;66387;53.440;10.390;2024-02-15T00:43:40;22.97;;;10.40;;
77324;SDS011;66387;53.440;10.390;2024-02-15T00:46:05;22.60;;;10.95;;
77324;SDS011;66387;53.440;10.390;2024-02-15T00:48:30;21.90;;;11.37;;
77324;SDS011;66387;53.440;10.390;2024-02-15T00:50:56;28.33;;;12.53;;
77324;SDS011;66387;53.440;10.390;2024-02-15T00:53:21;27.40;;;12.40;;
77324;SDS011;66387;53.440;10.390;2024-02-15T00:55:47;26.65;;;12.48;;
77324;SDS011;66387;53.440;10.390;2024-02-15T00:58:12;26.97;;;12.23;;
77324;SDS011;66387;53.440;10.390;2024-02-15T01:00:37;26.30;;;11.67;;
77324;SDS011;66387;53.440;10.390;2024-02-15T01:03:03;22.80;;;10.75;;
77324;SDS011;66387;53.440;10.390;2024-02-15T01:05:29;25.85;;;12.05;;
77324;SDS011;66387;53.440;10.390;2024-02-15T01:07:55;34.63;;;12.00;;
77324;SDS011;66387;53.440;10.390;2024-02-15T01:10:20;39.67;;;12.20;;
77324;SDS011;66387;53.440;10.390;2024-02-15T01:12:46;31.58;;;10.75;;
77324;SDS011;66387;53.440;10.390;2024-02-15T01:15:11;23.50;;;10.45;;
77324;SDS011;66387;53.440;10.390;2024-02-15T01:17:36;49.28;;;14.55;;
77324;SDS011;66387;53.440;10.390;2024-02-15T01:20:02;30.70;;;11.50;;
77324;SDS011;66387;53.440;10.390;2024-02-15T01:22:27;35.78;;;12.60;;
77324;SDS011;66387;53.440;10.390;2024-02-15T01:24:53;28.10;;;12.70;;
77324;SDS011;66387;53.440;10.390;2024-02-15T01:27:18;33.20;;;11.98;;
77324;SDS011;66387;53.440;10.390;2024-02-15T01:29:44;30.52;;;11.25;;
77324;SDS011;66387;53.440;10.390;2024-02-15T01:32:09;27.33;;;11.87;;
77324;SDS011;66387;53.440;10.390;2024-02-15T01:34:35;29.52;;;13.35;;
77324;SDS011;66387;53.440;10.390;2024-02-15T01:37:00;31.70;;;11.70;;
77324;SDS011;66387;53.440;10.390;2024-02-15T01:39:25;25.50;;;11.40;;
77324;SDS011;66387;53.440;10.390;2024-02-15T01:41:50;27.27;;;11.63;;
77324;SDS011;66387;53.440;10.390;2024-02-15T01:44:17;29.30;;;11.85;;
77324;SDS011;66387;53.440;10.390;2024-02-15T01:46:45;27.65;;;12.70;;
77324;SDS011;66387;53.440;10.390;2024-02-15T01:49:12;32.10;;;11.82;;
77324;SDS011;66387;53.440;10.390;2024-02-15T01:51:38;28.67;;;12.70;;
77324;SDS011;66387;53.440;10.390;2024-02-15T01:54:08;29.45;;;12.30;;
77324;SDS011;66387;53.440;10.390;2024-02-15T01:56:34;28.38;;;12.30;;
77324;SDS011;66387;53.440;10.390;2024-02-15T01:59:00;31.13;;;13.15;;
77324;SDS011;66387;53.440;10.390;2024-02-15T02:01:26;28.52;;;12.55;;
77324;SDS011;66387;53.440;10.390;2024-02-15T02:03:52;31.42;;;13.05;;
77324;SDS011;66387;53.440;10.390;2024-02-15T02:06:17;24.90;;;13.17;;
77324;SDS011;66387;53.440;10.390;2024-02-15T02:08:44;26.05;;;12.20;;
77324;SDS011;66387;53.440;10.390;2024-02-15T02:11:09;26.47;;;12.50;;
77324;SDS011;66387;53.440;10.390;2024-02-15T02:13:34;31.00;;;12.45;;
77324;SDS011;66387;53.440;10.390;2024-02-15T02:16:00;25.05;;;11.07;;
77324;SDS011;66387;53.440;10.390;2024-02-15T02:18:25;24.97;;;11.17;;
77324;SDS011;66387;53.440;10.390;2024-02-15T02:20:50;28.17;;;12.13;;
77324;SDS011;66387;53.440;10.390;2024-02-15T02:23:16;24.33;;;12.40;;
77324;SDS011;66387;53.440;10.390;2024-02-15T02:25:45;25.42;;;10.80;;
77324;SDS011;66387;53.440;10.390;2024-02-15T02:28:13;26.05;;;11.75;;
77324;SDS011;66387;53.440;10.390;2024-02-15T02:30:39;26.85;;;12.73;;
77324;SDS011;66387;53.440;10.390;2024-02-15T02:33:10;27.88;;;12.50;;
77324;SDS011;66387;53.440;10.390;2024-02-15T02:35:35;25.98;;;11.07;;
77324;SDS011;66387;53.440;10.390;2024-02-15T02:38:01;30.20;;;10.77;;
77324;SDS011;66387;53.440;10.390;2024-02-15T02:40:27;28.30;;;12.32;;
77324;SDS011;66387;53.440;10.390;2024-02-15T02:42:53;29.03;;;11.87;;
77324;SDS011;66387;53.440;10.390;2024-02-15T02:45:24;25.92;;;10.38;;
77324;SDS011;66387;53.440;10.390;2024-02-15T02:47:50;31.23;;;13.05;;
77324;SDS011;66387;53.440;10.390;2024-02-15T02:50:16;33.63;;;13.88;;
77324;SDS011;66387;53.440;10.390;2024-02-15T02:52:42;33.45;;;13.40;;
77324;SDS011;66387;53.440;10.390;2024-02-15T02:55:08;31.90;;;11.55;;
77324;SDS011;66387;53.440;10.390;2024-02-15T02:57:34;26.77;;;11.20;;
77324;SDS011;66387;53.440;10.390;2024-02-15T03:00:02;26.30;;;12.70;;
77324;SDS011;66387;53.440;10.390;2024-02-15T03:02:37;28.35;;;11.98;;
77324;SDS011;66387;53.440;10.390;2024-02-15T03:05:06;32.88;;;12.90;;
77324;SDS011;66387;53.440;10.390;2024-02-15T03:07:33;29.95;;;13.73;;
77324;SDS011;66387;53.440;10.390;2024-02-15T03:09:59;30.02;;;13.43;;
77324;SDS011;66387;53.440;10.390;2024-02-15T03:12:25;29.65;;;12.43;;
77324;SDS011;66387;53.440;10.390;2024-02-15T03:14:51;32.10;;;13.85;;
77324;SDS011;66387;53.440;10.390;2024-02-15T03:17:17;30.23;;;11.75;;
77324;SDS011;66387;53.440;10.390;2024-02-15T03:19:42;29.77;;;13.47;;
77324;SDS011;66387;53.440;10.390;2024-02-15T03:22:07;28.37;;;11.70;;
77324;SDS011;66387;53.440;10.390;2024-02-15T03:24:32;31.90;;;12.40;;
77324;SDS011;66387;53.440;10.390;2024-02-15T03:26:58;26.27;;;11.80;;
77324;SDS011;66387;53.440;10.390;2024-02-15T03:29:23;28.77;;;11.93;;
77324;SDS011;66387;53.440;10.390;2024-02-15T03:31:50;22.52;;;10.75;;
77324;SDS011;66387;53.440;10.390;2024-02-15T03:34:17;28.23;;;11.88;;
77324;SDS011;66387;53.440;10.390;2024-02-15T03:36:46;29.83;;;11.60;;
77324;SDS011;66387;53.440;10.390;2024-02-15T03:39:12;28.48;;;10.70;;
77324;SDS011;66387;53.440;10.390;2024-02-15T03:41:38;25.55;;;10.27;;
77324;SDS011;66387;53.440;10.390;2024-02-15T03:44:03;26.10;;;11.47;;
77324;SDS011;66387;53.440;10.390;2024-02-15T03:46:29;25.30;;;12.23;;
77324;SDS011;66387;53.440;10.390;2024-02-15T03:48:54;29.20;;;11.37;;
77324;SDS011;66387;53.440;10.390;2024-02-15T03:51:22;26.45;;;12.10;;
77324;SDS011;66387;53.440;10.390;2024-02-15T03:53:49;21.92;;;9.18;;
77324;SDS011;66387;53.440;10.390;2024-02-15T03:56:17;24.83;;;10.63;;
77324;SDS011;66387;53.440;10.390;2024-02-15T03:58:42;25.75;;;10.13;;
77324;SDS011;66387;53.440;10.390;2024-02-15T04:01:07;27.00;;;9.90;;
77324;SDS011;66387;53.440;10.390;2024-02-15T04:03:34;26.33;;;10.48;;
77324;SDS011;66387;53.440;10.390;2024-02-15T04:06:00;23.45;;;11.30;;
77324;SDS011;66387;53.440;10.390;2024-02-15T04:08:25;23.92;;;10.27;;
77324;SDS011;66387;53.440;10.390;2024-02-15T04:10:51;25.67;;;9.25;;
77324;SDS011;66387;53.440;10.390;2024-02-15T04:13:16;24.08;;;9.52;;
77324;SDS011;66387;53.440;10.390;2024-02-15T04:15:42;26.27;;;11.90;;
77324;SDS011;66387;53.440;10.390;2024-02-15T04:18:08;21.33;;;10.40;;
77324;SDS011;66387;53.440;10.390;2024-02-15T04:20:35;21.65;;;9.07;;
77324;SDS011;66387;53.440;10.390;2024-02-15T04:23:01;27.35;;;12.05;;
77324;SDS011;66387;53.440;10.390;2024-02-15T04:25:26;22.53;;;11.00;;
77324;SDS011;66387;53.440;10.390;2024-02-15T04:27:53;22.73;;;10.73;;
77324;SDS011;66387;53.440;10.390;2024-02-15T04:30:18;24.20;;;9.90;;
77324;SDS011;66387;53.440;10.390;2024-02-15T04:32:44;27.52;;;9.50;;
77324;SDS011;66387;53.440;10.390;2024-02-15T04:35:09;23.08;;;11.02;;
77324;SDS011;66387;53.440;10.390;2024-02-15T04:37:35;21.15;;;9.55;;
77324;SDS011;66387;53.440;10.390;2024-02-15T04:40:02;27.10;;;10.70;;
77324;SDS011;66387;53.440;10.390;2024-02-15T04:42:34;24.83;;;10.40;;
77324;SDS011;66387;53.440;10.390;2024-02-15T04:45:02;25.08;;;10.75;;
77324;SDS011;66387;53.440;10.390;2024-02-15T04:47:28;27.23;;;12.02;;
77324;SDS011;66387;53.440;10.390;2024-02-15T04:49:54;24.77;;;9.73;;
77324;SDS011;66387;53.440;10.390;2024-02-15T04:52:20;26.70;;;11.17;;
77324;SDS011;66387;53.440;10.390;2024-02-15T04:54:48;25.80;;;9.20;;
77324;SDS011;66387;53.440;10.390;2024-02-15T04:57:14;26.40;;;11.80;;
77324;SDS011;66387;53.440;10.390;2024-02-15T04:59:39;29.17;;;12.45;;
77324;SDS011;66387;53.440;10.390;2024-02-15T05:02:04;30.75;;;11.30;;
77324;SDS011;66387;53.440;10.390;2024-02-15T05:04:30;29.00;;;11.03;;
77324;SDS011;66387;53.440;10.390;2024-02-15T05:06:55;25.37;;;11.13;;
77324;SDS011;66387;53.440;10.390;2024-02-15T05:09:21;27.75;;;11.90;;
77324;SDS011;66387;53.440;10.390;2024-02-15T05:11:47;27.83;;;11.40;;
77324;SDS011;66387;53.440;10.390;2024-02-15T05:14:16;27.45;;;12.63;;
77324;SDS011;66387;53.440;10.390;2024-02-15T05:16:45;28.67;;;12.07;;
77324;SDS011;66387;53.440;10.390;2024-02-15T05:19:12;29.23;;;12.68;;
77324;SDS011;66387;53.440;10.390;2024-02-15T05:21:38;26.83;;;11.02;;
77324;SDS011;66387;53.440;10.390;2024-02-15T05:24:04;23.10;;;10.70;;
77324;SDS011;66387;53.440;10.390;2024-02-15T05:26:30;27.15;;;11.27;;
77324;SDS011;66387;53.440;10.390;2024-02-15T05:28:55;23.27;;;10.68;;
77324;SDS011;66387;53.440;10.390;2024-02-15T05:31:21;31.23;;;12.13;;
77324;SDS011;66387;53.440;10.390;2024-02-15T05:33:50;29.60;;;12.13;;
77324;SDS011;66387;53.440;10.390;2024-02-15T05:36:16;28.65;;;11.88;;
77324;SDS011;66387;53.440;10.390;2024-02-15T05:38:46;25.92;;;12.85;;
77324;SDS011;66387;53.440;10.390;2024-02-15T05:41:12;27.90;;;12.93;;
77324;SDS011;66387;53.440;10.390;2024-02-15T05:43:38;32.47;;;12.35;;
77324;SDS011;66387;53.440;10.390;2024-02-15T05:46:06;26.42;;;11.48;;
77324;SDS011;66387;53.440;10.390;2024-02-15T05:48:34;26.60;;;12.45;;
77324;SDS011;66387;53.440;10.390;2024-02-15T05:51:01;26.85;;;11.48;;
77324;SDS011;66387;53.440;10.390;2024-02-15T05:53:28;29.30;;;12.85;;
77324;SDS011;66387;53.440;10.390;2024-02-15T05:55:54;26.27;;;11.15;;
77324;SDS011;66387;53.440;10.390;2024-02-15T05:58:20;27.60;;;12.38;;
77324;SDS011;66387;53.440;10.390;2024-02-15T06:00:45;29.00;;;12.82;;
77324;SDS011;66387;53.440;10.390;2024-02-15T06:03:14;30.77;;;12.23;;
77324;SDS011;66387;53.440;10.390;2024-02-15T06:05:39;26.43;;;12.20;;
77324;SDS011;66387;53.440;10.390;2024-02-15T06:08:06;29.60;;;11.73;;
77324;SDS011;66387;53.440;10.390;2024-02-15T06:10:31;37.25;;;13.88;;
77324;SDS011;66387;53.440;10.390;2024-02-15T06:12:57;28.13;;;12.02;;
77324;SDS011;66387;53.440;10.390;2024-02-15T06:15:25;28.05;;;12.93;;
77324;SDS011;66387;53.440;10.390;2024-02-15T06:17:51;30.42;;;12.75;;
77324;SDS011;66387;53.440;10.390;2024-02-15T06:20:17;29.42;;;12.70;;
77324;SDS011;66387;53.440;10.390;2024-02-15T06:22:43;29.05;;;14.10;;
77324;SDS011;66387;53.440;10.390;2024-02-15T06:25:09;33.47;;;12.82;;
77324;SDS011;66387;53.440;10.390;2024-02-15T06:27:35;37.10;;;13.50;;
77324;SDS011;66387;53.440;10.390;2024-02-15T06:30:05;31.80;;;12.07;;
77324;SDS011;66387;53.440;10.390;2024-02-15T06:32:53;28.75;;;11.55;;
77324;SDS011;66387;53.440;10.390;2024-02-15T06:35:37;31.23;;;11.90;;
77324;SDS011;66387;53.440;10.390;2024-02-15T06:38:21;31.10;;;12.75;;
77324;SDS011;66387;53.440;10.390;2024-02-15T06:41:04;35.97;;;12.45;;
77324;SDS011;66387;53.440;10.390;2024-02-15T06:43:30;32.03;;;11.73;;
77324;SDS011;66387;53.440;10.390;2024-02-15T06:45:55;29.23;;;11.50;;
77324;SDS011;66387;53.440;10.390;2024-02-15T06:48:20;35.83;;;12.50;;
77324;SDS011;66387;53.440;10.390;2024-02-15T06:50:48;33.03;;;14.07;;
77324;SDS011;66387;53.440;10.390;2024-02-15T06:53:14;32.42;;;13.23;;
77324;SDS011;66387;53.440;10.390;2024-02-15T06:55:39;39.40;;;13.48;;
77324;SDS011;66387;53.440;10.390;2024-02-15T06:58:05;36.92;;;13.05;;
77324;SDS011;66387;53.440;10.390;2024-02-15T07:00:30;35.55;;;13.68;;
77324;SDS011;66387;53.440;10.390;2024-02-15T07:02:56;32.88;;;12.90;;
77324;SDS011;66387;53.440;10.390;2024-02-15T07:05:22;35.30;;;13.77;;
77324;SDS011;66387;53.440;10.390;2024-02-15T07:07:48;30.23;;;13.18;;
77324;SDS011;66387;53.440;10.390;2024-02-15T07:10:14;32.53;;;12.77;;
77324;SDS011;66387;53.440;10.390;2024-02-15T07:12:41;39.95;;;13.70;;
77324;SDS011;66387;53.440;10.390;2024-02-15T07:15:08;43.85;;;15.88;;
77324;SDS011;66387;53.440;10.390;2024-02-15T07:17:35;43.45;;;15.48;;
77324;SDS011;66387;53.440;10.390;2024-02-15T07:20:01;37.20;;;14.93;;
77324;SDS011;66387;53.440;10.390;2024-02-15T07:22:29;31.98;;;14.30;;
77324;SDS011;66387;53.440;10.390;2024-02-15T07:24:56;34.35;;;13.30;;
77324;SDS011;66387;53.440;10.390;2024-02-15T07:27:21;35.13;;;13.87;;
77324;SDS011;66387;53.440;10.390;2024-02-15T07:29:50;36.85;;;13.77;;
77324;SDS011;66387;53.440;10.390;2024-02-15T07:32:15;33.83;;;12.15;;
77324;SDS011;66387;53.440;10.390;2024-02-15T07:34:42;29.90;;;13.82;;
77324;SDS011;66387;53.440;10.390;2024-02-15T07:37:08;28.58;;;14.15;;
77324;SDS011;66387;53.440;10.390;2024-02-15T07:39:34;35.08;;;12.35;;
77324;SDS011;66387;53.440;10.390;2024-02-15T07:42:01;31.45;;;11.43;;
77324;SDS011;66387;53.440;10.390;2024-02-15T07:44:29;27.63;;;12.38;;
77324;SDS011;66387;53.440;10.390;2024-02-15T07:46:57;28.95;;;11.35;;
77324;SDS011;66387;53.440;10.390;2024-02-15T07:49:25;26.70;;;11.88;;
77324;SDS011;66387;53.440;10.390;2024-02-15T07:51:51;27.42;;;11.52;;
77324;SDS011;66387;53.440;10.390;2024-02-15T07:54:20;32.17;;;14.25;;
77324;SDS011;66387;53.440;10.390;2024-02-15T07:56:46;30.05;;;12.70;;
77324;SDS011;66387;53.440;10.390;2024-02-15T07:59:13;27.42;;;12.15;;
77324;SDS011;66387;53.440;10.390;2024-02-15T08:01:40;36.65;;;13.45;;
77324;SDS011;66387;53.440;10.390;2024-02-15T08:04:05;27.20;;;11.50;;
77324;SDS011;66387;53.440;10.390;2024-02-15T08:06:33;32.05;;;12.20;;
77324;SDS011;66387;53.440;10.390;2024-02-15T08:08:58;26.52;;;12.13;;
77324;SDS011;66387;53.440;10.390;2024-02-15T08:11:23;27.30;;;11.82;;
77324;SDS011;66387;53.440;10.390;2024-02-15T08:13:51;22.40;;;10.57;;
77324;SDS011;66387;53.440;10.390;2024-02-15T08:18:47;26.52;;;10.00;;
77324;SDS011;66387;53.440;10.390;2024-02-15T08:21:12;25.73;;;11.67;;
77324;SDS011;66387;53.440;10.390;2024-02-15T08:23:38;27.88;;;11.15;;
77324;SDS011;66387;53.440;10.390;2024-02-15T08:26:03;29.77;;;11.47;;
77324;SDS011;66387;53.440;10.390;2024-02-15T08:28:29;26.95;;;10.70;;
77324;SDS011;66387;53.440;10.390;2024-02-15T08:30:55;28.43;;;11.87;;
77324;SDS011;66387;53.440;10.390;2024-02-15T08:33:22;28.15;;;11.70;;
77324;SDS011;66387;53.440;10.390;2024-02-15T08:35:48;26.67;;;12.77;;
77324;SDS011;66387;53.440;10.390;2024-02-15T08:38:14;28.10;;;11.55;;
77324;SDS011;66387;53.440;10.390;2024-02-15T08:40:39;30.07;;;11.40;;
77324;SDS011;66387;53.440;10.390;2024-02-15T08:43:04;27.93;;;11.97;;
77324;SDS011;66387;53.440;10.390;2024-02-15T08:45:29;26.20;;;11.10;;
77324;SDS011;66387;53.440;10.390;2024-02-15T08:47:55;24.80;;;11.73;;
77324;SDS011;66387;53.440;10.390;2024-02-15T08:50:20;24.07;;;11.37;;
77324;SDS011;66387;53.440;10.390;2024-02-15T08:52:48;27.38;;;11.80;;
77324;SDS011;66387;53.440;10.390;2024-02-15T08:55:13;27.10;;;11.48;;
77324;SDS011;66387;53.440;10.390;2024-02-15T08:57:39;22.83;;;10.48;;
77324;SDS011;66387;53.440;10.390;2024-02-15T09:00:06;19.50;;;10.05;;
77324;SDS011;66387;53.440;10.390;2024-02-15T09:02:38;22.52;;;9.77;;
77324;SDS011;66387;53.440;10.390;2024-02-15T09:05:10;23.50;;;10.98;;
77324;SDS011;66387;53.440;10.390;2024-02-15T09:07:35;21.87;;;9.70;;
77324;SDS011;66387;53.440;10.390;2024-02-15T09:10:04;21.45;;;8.02;;
77324;SDS011;66387;53.440;10.390;2024-02-15T09:12:32;23.73;;;9.70;;
77324;SDS011;66387;53.440;10.390;2024-02-15T09:14:57;24.50;;;10.00;;
77324;SDS011;66387;53.440;10.390;2024-02-15T09:17:22;18.87;;;9.50;;
77324;SDS011;66387;53.440;10.390;2024-02-15T09:19:48;15.95;;;8.68;;
77324;SDS011;66387;53.440;10.390;2024-02-15T09:22:14;19.88;;;7.93;;
77324;SDS011;66387;53.440;10.390;2024-02-15T09:24:40;17.77;;;9.10;;
77324;SDS011;66387;53.440;10.390;2024-02-15T09:27:05;17.37;;;8.23;;
77324;SDS011;66387;53.440;10.390;2024-02-15T09:29:30;19.10;;;8.07;;
77324;SDS011;66387;53.440;10.390;2024-02-15T09:31:57;18.45;;;8.23;;
77324;SDS011;66387;53.440;10.390;2024-02-15T09:34:23;20.67;;;9.25;;
77324;SDS011;66387;53.440;10.390;2024-02-15T09:36:48;17.45;;;8.63;;
77324;SDS011;66387;53.440;10.390;2024-02-15T09:39:14;15.63;;;8.07;;
77324;SDS011;66387;53.440;10.390;2024-02-15T09:41:39;18.95;;;9.50;;
77324;SDS011;66387;53.440;10.390;2024-02-15T09:44:05;13.68;;;7.68;;
77324;SDS011;66387;53.440;10.390;2024-02-15T09:46:32;14.73;;;7.45;;
77324;SDS011;66387;53.440;10.390;2024-02-15T09:49:01;15.88;;;7.43;;
77324;SDS011;66387;53.440;10.390;2024-02-15T09:51:28;15.68;;;8.30;;
77324;SDS011;66387;53.440;10.390;2024-02-15T09:53:58;15.38;;;7.97;;
77324;SDS011;66387;53.440;10.390;2024-02-15T09:56:25;14.35;;;7.28;;
77324;SDS011;66387;53.440;10.390;2024-02-15T09:58:51;16.33;;;8.13;;
77324;SDS011;66387;53.440;10.390;2024-02-15T10:01:16;13.07;;;7.77;;
77324;SDS011;66387;53.440;10.390;2024-02-15T10:03:45;14.10;;;7.47;;
77324;SDS011;66387;53.440;10.390;2024-02-15T10:06:15;15.98;;;7.88;;
77324;SDS011;66387;53.440;10.390;2024-02-15T10:11:08;16.20;;;8.03;;
77324;SDS011;66387;53.440;10.390;2024-02-15T10:13:34;16.25;;;8.73;;
77324;SDS011;66387;53.440;10.390;2024-02-15T10:16:09;18.75;;;9.02;;
77324;SDS011;66387;53.440;10.390;2024-02-15T10:18:39;15.70;;;9.40;;
77324;SDS011;66387;53.440;10.390;2024-02-15T10:21:04;17.77;;;10.07;;
77324;SDS011;66387;53.440;10.390;2024-02-15T10:23:29;19.10;;;10.70;;
77324;SDS011;66387;53.440;10.390;2024-02-15T10:25:55;18.80;;;9.50;;
77324;SDS011;66387;53.440;10.390;2024-02-15T10:28:21;21.10;;;10.73;;
77324;SDS011;66387;53.440;10.390;2024-02-15T10:30:50;19.15;;;10.20;;
77324;SDS011;66387;53.440;10.390;2024-02-15T10:33:27;19.38;;;9.45;;
77324;SDS011;66387;53.440;10.390;2024-02-15T10:36:06;24.88;;;12.40;;
77324;SDS011;66387;53.440;10.390;2024-02-15T10:38:33;20.40;;;11.32;;
77324;SDS011;66387;53.440;10.390;2024-02-15T10:41:05;24.20;;;10.63;;
77324;SDS011;66387;53.440;10.390;2024-02-15T10:43:35;24.38;;;12.20;;
77324;SDS011;66387;53.440;10.390;2024-02-15T10:46:03;26.92;;;11.07;;
77324;SDS011;66387;53.440;10.390;2024-02-15T10:48:28;24.27;;;12.73;;
77324;SDS011;66387;53.440;10.390;2024-02-15T10:50:54;25.83;;;12.60;;
77324;SDS011;66387;53.440;10.390;2024-02-15T10:53:22;28.00;;;12.77;;
77324;SDS011;66387;53.440;10.390;2024-02-15T10:58:42;22.05;;;13.07;;
77324;SDS011;66387;53.440;10.390;2024-02-15T11:01:17;26.85;;;12.70;;
77324;SDS011;66387;53.440;10.390;2024-02-15T11:03:57;24.98;;;14.48;;
77324;SDS011;66387;53.440;10.390;2024-02-15T11:06:28;20.67;;;13.45;;
77324;SDS011;66387;53.440;10.390;2024-02-15T11:08:55;30.20;;;14.57;;
77324;SDS011;66387;53.440;10.390;2024-02-15T11:11:21;28.55;;;15.68;;
77324;SDS011;66387;53.440;10.390;2024-02-15T11:13:47;27.02;;;15.48;;
77324;SDS011;66387;53.440;10.390;2024-02-15T11:22:01;29.83;;;16.20;;
77324;SDS011;66387;53.440;10.390;2024-02-15T11:24:34;31.05;;;16.50;;
77324;SDS011;66387;53.440;10.390;2024-02-15T11:27:02;31.38;;;16.38;;
77324;SDS011;66387;53.440;10.390;2024-02-15T11:35:06;32.60;;;16.77;;
77324;SDS011;66387;53.440;10.390;2024-02-15T11:40:12;35.25;;;17.70;;
77324;SDS011;66387;53.440;10.390;2024-02-15T11:42:38;31.58;;;16.52;;
77324;SDS011;66387;53.440;10.390;2024-02-15T11:45:05;31.75;;;15.65;;
77324;SDS011;66387;53.440;10.390;2024-02-15T11:49:59;28.92;;;14.55;;
77324;SDS011;66387;53.440;10.390;2024-02-15T11:52:24;32.03;;;16.90;;
77324;SDS011;66387;53.440;10.390;2024-02-15T11:54:50;29.57;;;15.87;;
77324;SDS011;66387;53.440;10.390;2024-02-15T11:57:15;29.48;;;16.08;;
77324;SDS011;66387;53.440;10.390;2024-02-15T11:59:50;31.05;;;16.50;;
77324;SDS011;66387;53.440;10.390;2024-02-15T12:02:39;31.67;;;17.05;;
77324;SDS011;66387;53.440;10.390;2024-02-15T12:05:23;31.15;;;16.42;;
77324;SDS011;66387;53.440;10.390;2024-02-15T12:08:06;33.28;;;16.05;;
77324;SDS011;66387;53.440;10.390;2024-02-15T12:11:13;27.60;;;16.35;;
77324;SDS011;66387;53.440;10.390;2024-02-15T12:13:57;30.90;;;16.58;;
77324;SDS011;66387;53.440;10.390;2024-02-15T12:16:41;31.00;;;16.30;;
77324;SDS011;66387;53.440;10.390;2024-02-15T12:19:35;30.58;;;14.73;;
77324;SDS011;66387;53.440;10.390;2024-02-15T12:22:02;29.98;;;16.38;;
77324;SDS011;66387;53.440;10.390;2024-02-15T12:24:29;30.83;;;16.98;;
77324;SDS011;66387;53.440;10.390;2024-02-15T12:27:01;26.83;;;16.07;;
77324;SDS011;66387;53.440;10.390;2024-02-15T12:29:28;27.90;;;16.40;;
77324;SDS011;66387;53.440;10.390;2024-02-15T12:31:54;32.17;;;15.70;;
77324;SDS011;66387;53.440;10.390;2024-02-15T12:34:20;26.20;;;15.50;;
77324;SDS011;66387;53.440;10.390;2024-02-15T12:36:45;27.23;;;15.77;;
77324;SDS011;66387;53.440;10.390;2024-02-15T12:39:11;26.15;;;16.05;;
77324;SDS011;66387;53.440;10.390;2024-02-15T12:41:40;28.35;;;15.45;;
77324;SDS011;66387;53.440;10.390;2024-02-15T12:44:11;25.15;;;14.85;;
77324;SDS011;66387;53.440;10.390;2024-02-15T12:46:41;28.88;;;16.90;;
77324;SDS011;66387;53.440;10.390;2024-02-15T12:49:28;27.27;;;14.70;;
77324;SDS011;66387;53.440;10.390;2024-02-15T12:51:53;29.52;;;17.65;;
77324;SDS011;66387;53.440;10.390;2024-02-15T12:54:39;27.25;;;15.43;;
77324;SDS011;66387;53.440;10.390;2024-02-15T12:57:08;23.33;;;13.60;;
77324;SDS011;66387;53.440;10.390;2024-02-15T12:59:37;27.92;;;14.20;;
77324;SDS011;66387;53.440;10.390;2024-02-15T13:02:03;23.63;;;13.23;;
77324;SDS011;66387;53.440;10.390;2024-02-15T13:04:29;22.13;;;13.50;;
77324;SDS011;66387;53.440;10.390;2024-02-15T13:06:54;23.80;;;12.93;;
77324;SDS011;66387;53.440;10.390;2024-02-15T13:09:19;17.07;;;10.47;;
77324;SDS011;66387;53.440;10.390;2024-02-15T13:14:12;18.50;;;11.30;;
77324;SDS011;66387;53.440;10.390;2024-02-15T13:16:38;18.77;;;11.20;;
77324;SDS011;66387;53.440;10.390;2024-02-15T13:19:03;18.42;;;11.15;;
77324;SDS011;66387;53.440;10.390;2024-02-15T13:21:31;18.85;;;11.00;;
77324;SDS011;66387;53.440;10.390;2024-02-15T13:23:59;18.75;;;11.43;;
77324;SDS011;66387;53.440;10.390;2024-02-15T13:26:24;16.63;;;10.75;;
77324;SDS011;66387;53.440;10.390;2024-02-15T13:28:51;19.35;;;11.48;;
77324;SDS011;66387;53.440;10.390;2024-02-15T13:31:17;18.55;;;10.85;;
77324;SDS011;66387;53.440;10.390;2024-02-15T13:33:42;19.20;;;12.53;;
77324;SDS011;66387;53.440;10.390;2024-02-15T13:36:07;17.20;;;10.80;;
77324;SDS011;66387;53.440;10.390;2024-02-15T13:38:35;18.90;;;10.48;;
77324;SDS011;66387;53.440;10.390;2024-02-15T13:41:03;19.05;;;10.40;;
77324;SDS011;66387;53.440;10.390;2024-02-15T13:43:29;15.47;;;9.23;;
77324;SDS011;66387;53.440;10.390;2024-02-15T13:45:55;13.15;;;9.27;;
77324;SDS011;66387;53.440;10.390;2024-02-15T13:48:21;12.47;;;8.20;;
77324;SDS011;66387;53.440;10.390;2024-02-15T13:50:50;17.63;;;10.60;;
77324;SDS011;66387;53.440;10.390;2024-02-15T13:53:17;17.15;;;10.10;;
77324;SDS011;66387;53.440;10.390;2024-02-15T13:55:43;17.10;;;10.10;;
77324;SDS011;66387;53.440;10.390;2024-02-15T13:58:08;15.27;;;8.23;;
77324;SDS011;66387;53.440;10.390;2024-02-15T14:00:37;14.57;;;9.13;;
77324;SDS011;66387;53.440;10.390;2024-02-15T14:03:02;11.57;;;7.77;;
77324;SDS011;66387;53.440;10.390;2024-02-15T14:05:30;11.93;;;7.93;;
77324;SDS011;66387;53.440;10.390;2024-02-15T14:07:58;11.70;;;8.57;;
77324;SDS011;66387;53.440;10.390;2024-02-15T14:10:25;10.90;;;8.02;;
77324;SDS011;66387;53.440;10.390;2024-02-15T14:12:53;9.82;;;7.55;;
77324;SDS011;66387;53.440;10.390;2024-02-15T14:15:23;11.68;;;8.07;;
77324;SDS011;66387;53.440;10.390;2024-02-15T14:17:49;9.52;;;6.93;;
77324;SDS011;66387;53.440;10.390;2024-02-15T14:20:14;10.60;;;7.80;;
77324;SDS011;66387;53.440;10.390;2024-02-15T14:22:40;10.27;;;7.53;;
77324;SDS011;66387;53.440;10.390;2024-02-15T14:25:07;9.82;;;7.63;;
77324;SDS011;66387;53.440;10.390;2024-02-15T14:27:32;14.85;;;7.57;;
77324;SDS011;66387;53.440;10.390;2024-02-15T14:29:58;9.80;;;7.30;;
77324;SDS011;66387;53.440;10.390;2024-02-15T14:32:42;11.13;;;7.88;;
77324;SDS011;66387;53.440;10.390;2024-02-15T14:35:27;11.85;;;7.80;;
77324;SDS011;66387;53.440;10.390;2024-02-15T14:37:54;11.48;;;6.93;;
77324;SDS011;66387;53.440;10.390;2024-02-15T14:40:23;11.80;;;8.73;;